createdAt,value
2024-05-09T00:00:12.712Z,138.11
2024-05-09T00:01:08.694Z,138.34
2024-05-09T00:02:07.644Z,138.32
2024-05-09T00:03:08.064Z,139.11
2024-05-09T00:04:07.712Z,137.13
2024-05-09T00:05:07.740Z,138.54
2024-05-09T00:06:07.661Z,139.36
2024-05-09T00:07:07.632Z,138.66
2024-05-09T00:08:07.657Z,138.65
2024-05-09T00:09:07.656Z,137.10
2024-05-09T00:10:14.607Z,138.54
2024-05-09T00:11:08.792Z,138.64
2024-05-09T00:12:07.905Z,138.63
2024-05-09T00:13:08.029Z,139.04
2024-05-09T00:14:07.660Z,138.29
2024-05-09T00:15:07.649Z,138.03
2024-05-09T00:16:07.658Z,136.89
2024-05-09T00:17:07.753Z,137.25
2024-05-09T00:18:08.321Z,137.70
2024-05-09T00:19:07.779Z,135.61
2024-05-09T00:20:14.341Z,136.77
2024-05-09T00:21:08.814Z,136.96
2024-05-09T00:22:07.662Z,137.20
2024-05-09T00:23:08.142Z,137.44
2024-05-09T00:24:07.661Z,138.70
2024-05-09T00:25:07.745Z,136.38
2024-05-09T00:26:07.713Z,137.85
2024-05-09T00:27:08.954Z,134.68
2024-05-09T00:28:07.676Z,135.04
2024-05-09T00:29:07.724Z,135.36
2024-05-09T00:30:11.540Z,135.04
2024-05-09T00:31:08.719Z,135.22
2024-05-09T00:32:07.808Z,135.05
2024-05-09T00:33:09.294Z,135.64
2024-05-09T00:34:07.808Z,136.43
2024-05-09T00:35:07.795Z,136.47
2024-05-09T00:36:07.728Z,134.12
2024-05-09T00:37:07.739Z,136.50
2024-05-09T00:38:07.846Z,136.26
2024-05-09T00:39:07.739Z,135.68
2024-05-09T00:40:15.035Z,136.18
2024-05-09T00:41:09.791Z,136.30
2024-05-09T00:42:07.752Z,136.63
2024-05-09T00:43:07.766Z,136.53
2024-05-09T00:44:07.757Z,135.83
2024-05-09T00:45:07.762Z,136.65
2024-05-09T00:46:07.760Z,133.41
2024-05-09T00:47:08.036Z,133.10
2024-05-09T00:48:09.399Z,134.66
2024-05-09T00:49:07.937Z,133.86
2024-05-09T00:50:12.876Z,134.72
2024-05-09T00:51:08.809Z,134.93
2024-05-09T00:52:07.763Z,135.18
2024-05-09T00:53:07.842Z,134.87
2024-05-09T00:54:07.803Z,137.00
2024-05-09T00:55:07.790Z,134.93
2024-05-09T00:56:07.864Z,135.43
2024-05-09T00:57:15.431Z,135.07
2024-05-09T00:58:07.856Z,135.31
2024-05-09T00:59:07.846Z,135.74
2024-05-09T01:00:15.056Z,136.70
2024-05-09T01:01:08.854Z,135.22
2024-05-09T01:02:07.900Z,135.55
2024-05-09T01:03:08.701Z,136.18
2024-05-09T01:04:07.946Z,134.40
2024-05-09T01:05:07.883Z,134.95
2024-05-09T01:06:07.853Z,134.94
2024-05-09T01:07:07.890Z,132.11
2024-05-09T01:08:08.245Z,134.88
2024-05-09T01:09:08.014Z,134.87
2024-05-09T01:10:14.095Z,133.78
2024-05-09T01:11:09.171Z,133.86
2024-05-09T01:12:08.269Z,134.06
2024-05-09T01:13:08.054Z,134.11
2024-05-09T01:14:08.090Z,133.14
2024-05-09T01:15:08.066Z,134.44
2024-05-09T01:16:13.143Z,132.42
2024-05-09T01:17:08.138Z,132.63
2024-05-09T01:18:08.239Z,132.27
2024-05-09T01:19:08.242Z,131.85
2024-05-09T01:20:10.907Z,133.34
2024-05-09T01:21:09.113Z,132.56
2024-05-09T01:22:08.089Z,132.58
2024-05-09T01:23:08.213Z,132.57
2024-05-09T01:24:08.080Z,132.76
2024-05-09T01:25:08.101Z,134.74
2024-05-09T01:26:08.151Z,135.85
2024-05-09T01:27:08.127Z,129.77
2024-05-09T01:28:08.131Z,133.86
2024-05-09T01:29:08.159Z,131.48
2024-05-09T01:30:11.902Z,132.17
2024-05-09T01:31:09.165Z,132.23
2024-05-09T01:32:08.281Z,132.57
2024-05-09T01:33:10.231Z,132.21
2024-05-09T01:34:08.185Z,134.43
2024-05-09T01:35:08.190Z,132.36
2024-05-09T01:36:08.168Z,130.64
2024-05-09T01:37:08.187Z,132.80
2024-05-09T01:38:08.247Z,132.37
2024-05-09T01:39:08.161Z,131.58
2024-05-09T01:40:12.252Z,128.90
2024-05-09T01:41:09.246Z,129.15
2024-05-09T01:42:08.665Z,129.83
2024-05-09T01:43:09.202Z,130.24
2024-05-09T01:44:08.223Z,130.75
2024-05-09T01:45:08.188Z,133.34
2024-05-09T01:46:08.177Z,130.58
2024-05-09T01:47:08.351Z,128.95
2024-05-09T01:48:08.450Z,130.48
2024-05-09T01:49:08.398Z,129.16
2024-05-09T01:50:10.782Z,131.02
2024-05-09T01:51:08.468Z,128.95
2024-05-09T01:52:08.305Z,128.62
2024-05-09T01:53:08.407Z,129.60
2024-05-09T01:54:08.311Z,129.52
2024-05-09T01:55:08.316Z,128.92
2024-05-09T01:56:08.356Z,129.23
2024-05-09T01:57:08.290Z,129.27
2024-05-09T01:58:08.317Z,129.21
2024-05-09T01:59:08.315Z,127.90
2024-05-09T02:00:10.238Z,126.40
2024-05-09T02:01:08.338Z,128.45
2024-05-09T02:02:08.512Z,126.47
2024-05-09T02:03:08.605Z,129.59
2024-05-09T02:04:08.558Z,129.14
2024-05-09T02:05:08.636Z,126.04
2024-05-09T02:06:08.609Z,128.33
2024-05-09T02:07:08.435Z,127.00
2024-05-09T02:08:08.634Z,127.37
2024-05-09T02:09:08.547Z,128.91
2024-05-09T02:10:16.120Z,125.63
2024-05-09T02:11:09.751Z,125.80
2024-05-09T02:12:08.933Z,126.15
2024-05-09T02:13:08.609Z,125.76
2024-05-09T02:14:08.674Z,128.20
2024-05-09T02:15:08.588Z,126.53
2024-05-09T02:16:08.595Z,128.27
2024-05-09T02:17:08.729Z,127.92
2024-05-09T02:18:09.112Z,127.01
2024-05-09T02:19:08.736Z,125.68
2024-05-09T02:20:13.218Z,123.00
2024-05-09T02:21:09.721Z,123.15
2024-05-09T02:22:10.875Z,123.87
2024-05-09T02:23:08.864Z,124.85
2024-05-09T02:24:08.656Z,126.21
2024-05-09T02:25:08.713Z,126.79
2024-05-09T02:26:08.751Z,127.26
2024-05-09T02:27:08.753Z,128.00
2024-05-09T02:28:08.842Z,127.29
2024-05-09T02:29:08.863Z,125.77
2024-05-09T02:30:18.294Z,124.97
2024-05-09T02:31:09.885Z,125.09
2024-05-09T02:32:11.048Z,125.36
2024-05-09T02:33:09.957Z,126.17
2024-05-09T02:34:09.075Z,123.37
2024-05-09T02:35:08.977Z,127.97
2024-05-09T02:36:08.903Z,124.24
2024-05-09T02:37:08.933Z,127.42
2024-05-09T02:38:09.023Z,125.55
2024-05-09T02:39:08.918Z,124.93
2024-05-09T02:40:14.268Z,127.33
2024-05-09T02:41:10.021Z,127.41
2024-05-09T02:42:12.183Z,127.46
2024-05-09T02:43:10.403Z,127.95
2024-05-09T02:44:08.975Z,127.44
2024-05-09T02:45:09.014Z,127.68
2024-05-09T02:46:09.076Z,127.71
2024-05-09T02:47:14.406Z,126.53
2024-05-09T02:48:09.244Z,127.44
2024-05-09T02:49:09.291Z,127.83
2024-05-09T02:50:13.252Z,127.07
2024-05-09T02:51:10.387Z,127.45
2024-05-09T02:52:09.229Z,127.73
2024-05-09T02:53:10.033Z,127.36
2024-05-09T02:54:09.211Z,127.37
2024-05-09T02:55:09.221Z,124.49
2024-05-09T02:56:09.236Z,125.56
2024-05-09T02:57:09.237Z,126.04
2024-05-09T02:58:09.326Z,123.16
2024-05-09T02:59:09.302Z,123.11
2024-05-09T03:00:15.209Z,122.21
2024-05-09T03:01:10.265Z,122.40
2024-05-09T03:02:09.283Z,122.93
2024-05-09T03:03:10.981Z,123.31
2024-05-09T03:04:09.393Z,122.35
2024-05-09T03:05:09.310Z,122.96
2024-05-09T03:06:09.236Z,123.46
2024-05-09T03:07:09.241Z,122.78
2024-05-09T03:08:09.536Z,123.05
2024-05-09T03:09:09.268Z,124.88
2024-05-09T03:10:18.186Z,123.98
2024-05-09T03:11:10.367Z,124.17
2024-05-09T03:12:09.362Z,124.15
2024-05-09T03:13:09.430Z,124.44
2024-05-09T03:14:09.299Z,125.06
2024-05-09T03:15:09.275Z,125.57
2024-05-09T03:16:09.378Z,125.77
2024-05-09T03:17:17.355Z,123.15
2024-05-09T03:18:09.589Z,123.38
2024-05-09T03:19:09.488Z,123.76
2024-05-09T03:20:16.886Z,124.27
2024-05-09T03:21:10.394Z,123.40
2024-05-09T03:22:09.300Z,123.76
2024-05-09T03:23:10.269Z,123.94
2024-05-09T03:24:09.283Z,124.23
2024-05-09T03:25:09.338Z,124.51
2024-05-09T03:26:09.424Z,124.03
2024-05-09T03:27:09.334Z,123.85
2024-05-09T03:28:09.336Z,124.19
2024-05-09T03:29:09.309Z,121.00
2024-05-09T03:30:10.003Z,121.63
2024-05-09T03:31:09.300Z,120.75
2024-05-09T03:32:09.451Z,120.80
2024-05-09T03:33:09.662Z,122.08
2024-05-09T03:34:09.534Z,119.03
2024-05-09T03:35:09.524Z,120.70
2024-05-09T03:36:11.321Z,119.53
2024-05-09T03:37:09.618Z,120.99
2024-05-09T03:38:09.861Z,120.96
2024-05-09T03:39:09.718Z,119.37
2024-05-09T03:40:17.507Z,118.83
2024-05-09T03:41:10.829Z,118.97
2024-05-09T03:42:09.780Z,119.41
2024-05-09T03:43:09.793Z,119.63
2024-05-09T03:44:09.870Z,120.80
2024-05-09T03:45:09.769Z,121.84
2024-05-09T03:46:09.777Z,121.98
2024-05-09T03:47:09.806Z,119.67
2024-05-09T03:48:10.136Z,121.23
2024-05-09T03:49:09.913Z,120.19
2024-05-09T03:50:18.023Z,118.02
2024-05-09T03:51:10.983Z,118.17
2024-05-09T03:52:09.824Z,118.57
2024-05-09T03:53:09.868Z,118.61
2024-05-09T03:54:09.819Z,120.43
2024-05-09T03:55:09.952Z,119.09
2024-05-09T03:56:09.845Z,119.70
2024-05-09T03:57:09.828Z,119.21
2024-05-09T03:58:09.839Z,120.19
2024-05-09T03:59:09.843Z,118.90
2024-05-09T04:00:17.632Z,118.93
2024-05-09T04:01:10.879Z,119.04
2024-05-09T04:02:09.902Z,118.97
2024-05-09T04:03:12.014Z,118.96
2024-05-09T04:04:09.867Z,121.05
2024-05-09T04:05:09.908Z,119.71
2024-05-09T04:06:09.860Z,120.70
2024-05-09T04:07:09.853Z,118.81
2024-05-09T04:08:10.422Z,116.20
2024-05-09T04:09:09.866Z,117.78
2024-05-09T04:10:17.004Z,118.76
2024-05-09T04:11:10.958Z,118.92
2024-05-09T04:12:10.108Z,119.04
2024-05-09T04:13:09.900Z,119.53
2024-05-09T04:14:09.945Z,117.36
2024-05-09T04:15:13.274Z,118.93
2024-05-09T04:16:09.869Z,118.79
2024-05-09T04:17:09.934Z,118.88
2024-05-09T04:18:10.089Z,118.86
2024-05-09T04:19:09.987Z,115.54
2024-05-09T04:20:12.511Z,117.49
2024-05-09T04:21:10.924Z,118.81
2024-05-09T04:22:09.910Z,118.92
2024-05-09T04:23:09.957Z,119.06
2024-05-09T04:24:09.890Z,117.18
2024-05-09T04:25:09.887Z,119.49
2024-05-09T04:26:09.950Z,117.23
2024-05-09T04:27:09.929Z,116.85
2024-05-09T04:28:09.961Z,116.26
2024-05-09T04:29:09.945Z,116.90
2024-05-09T04:30:18.404Z,115.55
2024-05-09T04:31:10.944Z,115.70
2024-05-09T04:32:10.060Z,115.78
2024-05-09T04:33:12.068Z,116.45
2024-05-09T04:34:10.048Z,115.58
2024-05-09T04:35:09.967Z,116.13
2024-05-09T04:36:09.985Z,116.07
2024-05-09T04:37:09.949Z,115.98
2024-05-09T04:38:10.105Z,117.06
2024-05-09T04:39:09.950Z,115.18
2024-05-09T04:40:17.198Z,116.70
2024-05-09T04:41:10.992Z,116.83
2024-05-09T04:42:09.958Z,116.84
2024-05-09T04:43:17.503Z,50.00
2024-05-09T04:44:17.323Z,50.00
2024-05-09T04:45:17.274Z,50.00
2024-05-09T04:46:17.282Z,50.00
2024-05-09T04:47:17.393Z,50.00
2024-05-09T04:48:17.420Z,53.16
2024-05-09T04:49:17.431Z,52.12
2024-05-09T04:50:25.336Z,51.74
2024-05-09T04:51:18.348Z,51.80
2024-05-09T04:52:17.363Z,52.14
2024-05-09T04:53:17.713Z,49.03
2024-05-09T04:54:26.503Z,48.17
2024-05-09T04:55:18.355Z,51.82
2024-05-09T04:56:17.425Z,49.96
2024-05-09T04:57:17.356Z,49.03
2024-05-09T04:58:17.364Z,45.34
2024-05-09T04:59:17.416Z,46.37
2024-05-09T05:00:25.476Z,51.37
2024-05-09T05:01:18.372Z,51.50
2024-05-09T05:02:22.563Z,51.42
2024-05-09T05:03:17.664Z,51.52
2024-05-09T05:04:17.633Z,51.79
2024-05-09T05:05:17.592Z,51.97
2024-05-09T05:06:17.413Z,52.40
2024-05-09T05:07:17.477Z,51.55
2024-05-09T05:08:18.619Z,52.20
2024-05-09T05:09:17.596Z,51.66
2024-05-09T05:10:25.129Z,50.15
2024-05-09T05:11:18.721Z,50.24
2024-05-09T05:12:17.714Z,50.56
2024-05-09T05:13:18.585Z,48.16
2024-05-09T05:14:17.719Z,50.96
2024-05-09T05:15:17.649Z,50.34
2024-05-09T05:16:17.644Z,50.00
2024-05-09T05:17:17.675Z,51.44
2024-05-09T05:18:17.946Z,53.04
2024-05-09T05:19:17.986Z,52.16
2024-05-09T05:20:27.050Z,53.06
2024-05-09T05:21:18.999Z,53.10
2024-05-09T05:22:27.848Z,52.58
2024-05-09T05:23:17.853Z,53.34
2024-05-09T05:24:17.793Z,53.95
2024-05-09T05:25:17.773Z,54.05
2024-05-09T05:26:17.837Z,54.24
2024-05-09T05:27:17.821Z,52.95
2024-05-09T05:28:17.839Z,54.94
2024-05-09T05:29:20.725Z,53.52
2024-05-09T05:30:24.761Z,53.06
2024-05-09T05:31:18.892Z,53.75
2024-05-09T05:32:17.892Z,54.19
2024-05-09T05:33:17.858Z,53.67
2024-05-09T05:34:17.802Z,54.67
2024-05-09T05:35:17.832Z,54.07
2024-05-09T05:36:17.819Z,50.97
2024-05-09T05:37:17.823Z,52.41
2024-05-09T05:38:17.997Z,51.25
2024-05-09T05:39:17.804Z,52.41
2024-05-09T05:40:27.953Z,52.77
2024-05-09T05:41:18.890Z,52.87
2024-05-09T05:42:17.885Z,53.14
2024-05-09T05:43:17.908Z,53.07
2024-05-09T05:44:17.888Z,53.25
2024-05-09T05:45:17.860Z,51.72
2024-05-09T05:46:17.854Z,52.98
2024-05-09T05:47:17.936Z,51.41
2024-05-09T05:48:18.324Z,50.50
2024-05-09T05:49:17.973Z,54.48
2024-05-09T05:50:24.851Z,53.37
2024-05-09T05:51:19.014Z,53.47
2024-05-09T05:52:17.886Z,53.42
2024-05-09T05:53:17.924Z,52.33
2024-05-09T05:54:17.926Z,54.03
2024-05-09T05:55:17.851Z,51.21
2024-05-09T05:56:17.913Z,53.88
2024-05-09T05:57:17.874Z,53.82
2024-05-09T05:58:17.876Z,51.74
2024-05-09T05:59:17.945Z,53.50
2024-05-09T06:00:28.592Z,52.18
2024-05-09T06:01:18.890Z,52.31
2024-05-09T06:02:18.080Z,52.39
2024-05-09T06:03:17.961Z,52.21
2024-05-09T06:04:17.919Z,51.63
2024-05-09T06:05:17.891Z,52.85
2024-05-09T06:06:17.888Z,52.20
2024-05-09T06:07:17.906Z,52.96
2024-05-09T06:08:17.974Z,53.31
2024-05-09T06:09:17.932Z,51.89
2024-05-09T06:10:25.168Z,51.77
2024-05-09T06:11:19.000Z,51.91
2024-05-09T06:12:18.087Z,52.01
2024-05-09T06:13:17.933Z,52.27
2024-05-09T06:14:18.013Z,52.91
2024-05-09T06:15:17.920Z,50.65
2024-05-09T06:16:17.938Z,51.86
2024-05-09T06:17:18.061Z,50.69
2024-05-09T06:18:18.375Z,53.51
2024-05-09T06:19:18.025Z,52.29
2024-05-09T06:20:23.982Z,52.24
2024-05-09T06:21:19.150Z,52.33
2024-05-09T06:22:17.951Z,52.58
2024-05-09T06:23:18.089Z,52.62
2024-05-09T06:24:17.964Z,51.36
2024-05-09T06:25:17.970Z,53.01
2024-05-09T06:26:18.096Z,50.48
2024-05-09T06:27:18.013Z,50.00
2024-05-09T06:28:17.980Z,51.29
2024-05-09T06:29:17.998Z,52.12
2024-05-09T06:30:25.848Z,52.19
2024-05-09T06:31:18.997Z,52.30
2024-05-09T06:32:18.075Z,52.37
2024-05-09T06:33:18.316Z,53.13
2024-05-09T06:34:18.282Z,52.99
2024-05-09T06:35:18.104Z,53.56
2024-05-09T06:36:18.008Z,50.31
2024-05-09T06:37:18.025Z,50.86
2024-05-09T06:38:18.066Z,50.92
2024-05-09T06:39:18.034Z,54.08
2024-05-09T06:40:25.383Z,52.43
2024-05-09T06:41:19.075Z,52.57
2024-05-09T06:42:18.031Z,52.59
2024-05-09T06:43:19.519Z,53.14
2024-05-09T06:44:18.113Z,52.45
2024-05-09T06:45:18.061Z,50.38
2024-05-09T06:46:18.050Z,52.17
2024-05-09T06:47:18.112Z,51.61
2024-05-09T06:48:18.335Z,51.88
2024-05-09T06:49:18.234Z,52.17
2024-05-09T06:50:23.864Z,52.33
2024-05-09T06:51:19.308Z,52.45
2024-05-09T06:52:18.080Z,52.68
2024-05-09T06:53:18.147Z,53.06
2024-05-09T06:54:18.094Z,54.01
2024-05-09T06:55:18.101Z,53.92
2024-05-09T06:56:18.124Z,51.25
2024-05-09T06:57:18.097Z,51.84
2024-05-09T06:58:18.133Z,51.89
2024-05-09T06:59:18.224Z,52.00
2024-05-09T07:00:26.867Z,52.73
2024-05-09T07:01:19.149Z,52.77
2024-05-09T07:02:18.182Z,52.90
2024-05-09T07:03:19.369Z,51.86
2024-05-09T07:04:18.308Z,51.10
2024-05-09T07:05:18.212Z,51.29
2024-05-09T07:06:18.127Z,53.31
2024-05-09T07:07:18.114Z,51.62
2024-05-09T07:08:18.354Z,51.72
2024-05-09T07:09:18.109Z,52.40
2024-05-09T07:10:25.494Z,53.28
2024-05-09T07:11:19.212Z,53.32
2024-05-09T07:12:18.358Z,53.56
2024-05-09T07:13:18.177Z,53.32
2024-05-09T07:14:18.291Z,53.02
2024-05-09T07:15:18.192Z,54.21
2024-05-09T07:16:18.140Z,52.07
2024-05-09T07:17:18.256Z,52.60
2024-05-09T07:18:19.296Z,52.28
2024-05-09T07:19:18.259Z,53.22
2024-05-09T07:20:23.709Z,52.95
2024-05-09T07:21:19.198Z,53.04
2024-05-09T07:22:18.194Z,53.00
2024-05-09T07:23:18.462Z,53.21
2024-05-09T07:24:18.160Z,53.28
2024-05-09T07:25:18.158Z,52.64
2024-05-09T07:26:18.342Z,52.62
2024-05-09T07:27:18.184Z,51.79
2024-05-09T07:28:18.369Z,52.69
2024-05-09T07:29:18.306Z,53.95
2024-05-09T07:30:23.801Z,51.83
2024-05-09T07:31:19.206Z,51.99
2024-05-09T07:32:18.318Z,52.37
2024-05-09T07:33:18.572Z,51.76
2024-05-09T07:34:18.300Z,52.99
2024-05-09T07:35:18.274Z,53.42
2024-05-09T07:36:18.252Z,51.14
2024-05-09T07:37:18.238Z,53.84
2024-05-09T07:38:18.371Z,52.71
2024-05-09T07:39:18.229Z,51.95
2024-05-09T07:40:28.427Z,51.64
2024-05-09T07:41:19.288Z,51.78
2024-05-09T07:42:18.259Z,52.14
2024-05-09T07:43:18.278Z,51.77
2024-05-09T07:44:18.297Z,50.06
2024-05-09T07:47:14.390Z,50.00
2024-05-09T07:48:29.163Z,50.34
2024-05-09T07:51:31.613Z,50.49
2024-05-09T07:53:38.196Z,50.38
2024-05-09T07:54:19.510Z,50.56
2024-05-09T07:55:18.467Z,51.75
2024-05-09T07:56:19.428Z,53.29
2024-05-09T07:57:18.386Z,54.75
2024-05-09T07:58:18.536Z,57.71
2024-05-09T07:59:18.294Z,52.83
2024-05-09T08:00:23.796Z,54.74
2024-05-09T08:01:19.654Z,54.88
2024-05-09T08:02:18.362Z,54.94
2024-05-09T08:03:18.457Z,55.03
2024-05-09T08:04:18.479Z,53.64
2024-05-09T08:05:18.333Z,50.92
2024-05-09T08:06:18.320Z,52.77
2024-05-09T08:07:18.391Z,50.74
2024-05-09T08:08:18.325Z,51.57
2024-05-09T08:09:21.227Z,53.42
2024-05-09T08:10:22.233Z,55.23
2024-05-09T08:11:19.374Z,55.31
2024-05-09T08:12:18.320Z,54.15
2024-05-09T08:13:18.414Z,53.09
2024-05-09T08:14:18.314Z,54.89
2024-05-09T08:15:18.318Z,51.52
2024-05-09T08:16:18.358Z,53.00
2024-05-09T08:17:18.398Z,53.23
2024-05-09T08:18:18.464Z,52.95
2024-05-09T08:19:18.368Z,54.50
2024-05-09T08:20:26.842Z,52.45
2024-05-09T08:21:19.384Z,52.63
2024-05-09T08:22:18.347Z,52.66
2024-05-09T08:23:18.323Z,52.89
2024-05-09T08:24:18.328Z,52.60
2024-05-09T08:25:18.492Z,48.41
2024-05-09T08:26:18.350Z,51.41
2024-05-09T08:27:18.354Z,53.31
2024-05-09T08:28:18.453Z,51.35
2024-05-09T08:29:18.435Z,54.20
2024-05-09T08:30:24.877Z,55.79
2024-05-09T08:31:19.440Z,54.83
2024-05-09T08:32:18.396Z,55.82
2024-05-09T08:33:18.541Z,54.26
2024-05-09T08:34:18.532Z,54.25
2024-05-09T08:35:18.346Z,53.00
2024-05-09T08:36:18.358Z,51.10
2024-05-09T08:37:22.505Z,50.50
2024-05-09T08:38:19.365Z,50.62
2024-05-09T08:39:18.349Z,50.77
2024-05-09T08:40:24.201Z,51.78
2024-05-09T08:41:19.371Z,50.72
2024-05-09T08:42:18.375Z,50.92
2024-05-09T08:43:18.471Z,52.15
2024-05-09T08:44:18.374Z,52.35
2024-05-09T08:45:18.364Z,53.17
2024-05-09T08:46:18.397Z,50.45
2024-05-09T08:47:18.426Z,53.09
2024-05-09T08:48:18.618Z,50.42
2024-05-09T08:49:18.498Z,52.01
2024-05-09T08:50:28.891Z,52.30
2024-05-09T08:51:19.382Z,52.42
2024-05-09T08:52:18.408Z,52.35
2024-05-09T08:53:18.398Z,52.39
2024-05-09T08:54:18.395Z,52.56
2024-05-09T08:55:18.443Z,49.99
2024-05-09T08:56:18.419Z,50.00
2024-05-09T08:57:18.463Z,50.00
2024-05-09T08:58:18.530Z,51.45
2024-05-09T08:59:18.412Z,51.40
2024-05-09T09:00:29.257Z,50.53
2024-05-09T09:01:19.708Z,50.71
2024-05-09T09:02:18.702Z,50.85
2024-05-09T09:03:19.229Z,51.59
2024-05-09T09:04:19.048Z,51.42
2024-05-09T09:05:19.064Z,51.43
2024-05-09T09:06:18.934Z,51.55
2024-05-09T09:07:19.136Z,50.77
2024-05-09T09:08:19.151Z,54.40
2024-05-09T09:09:19.264Z,52.20
2024-05-09T09:10:29.002Z,53.64
2024-05-09T09:11:20.381Z,53.69
2024-05-09T09:12:19.363Z,53.71
2024-05-09T09:13:19.372Z,53.66
2024-05-09T09:14:19.381Z,53.73
2024-05-09T09:15:19.395Z,52.16
2024-05-09T09:16:19.473Z,51.56
2024-05-09T09:17:27.004Z,50.00
2024-05-09T09:18:27.134Z,50.00
2024-05-09T09:19:27.010Z,50.00
2024-05-09T09:20:33.988Z,50.00
2024-05-09T09:21:27.897Z,50.00
2024-05-09T09:22:26.842Z,50.00
2024-05-09T09:23:26.943Z,50.00
2024-05-09T09:24:26.896Z,50.00
2024-05-09T09:25:26.869Z,50.00
2024-05-09T09:26:26.855Z,51.13
2024-05-09T09:27:26.924Z,51.53
2024-05-09T09:28:26.850Z,50.00
2024-05-09T09:29:26.840Z,52.08
2024-05-09T09:30:34.915Z,51.47
2024-05-09T09:31:28.053Z,51.62
2024-05-09T09:32:26.985Z,51.74
2024-05-09T09:33:27.066Z,51.92
2024-05-09T09:34:26.998Z,50.22
2024-05-09T09:35:26.918Z,49.67
2024-05-09T09:36:26.952Z,51.91
2024-05-09T09:37:26.927Z,49.68
2024-05-09T09:38:26.929Z,52.50
2024-05-09T09:39:27.089Z,52.47
2024-05-09T09:40:31.976Z,53.45
2024-05-09T09:41:27.946Z,53.49
2024-05-09T09:42:27.018Z,53.69
2024-05-09T09:43:26.974Z,52.67
2024-05-09T09:44:26.936Z,52.17
2024-05-09T09:45:26.955Z,49.85
2024-05-09T09:46:27.069Z,50.00
2024-05-09T09:47:27.127Z,52.76
2024-05-09T09:48:27.105Z,51.09
2024-05-09T09:49:27.050Z,51.55
2024-05-09T09:50:33.675Z,50.20
2024-05-09T09:51:28.000Z,50.37
2024-05-09T09:52:27.030Z,50.55
2024-05-09T09:53:26.965Z,48.56
2024-05-09T09:54:27.048Z,51.99
2024-05-09T09:55:27.032Z,50.36
2024-05-09T09:56:27.018Z,52.74
2024-05-09T09:57:26.990Z,50.08
2024-05-09T09:58:27.186Z,51.62
2024-05-09T09:59:27.002Z,50.39
2024-05-09T10:00:32.378Z,50.00
2024-05-09T10:01:28.096Z,50.12
2024-05-09T10:02:27.076Z,50.59
2024-05-09T10:03:27.184Z,50.64
2024-05-09T10:04:27.130Z,50.80
2024-05-09T10:05:27.461Z,52.38
2024-05-09T10:06:27.144Z,50.80
2024-05-09T10:07:27.022Z,51.07
2024-05-09T10:08:27.027Z,53.66
2024-05-09T10:09:27.036Z,51.13
2024-05-09T10:10:31.967Z,53.02
2024-05-09T10:11:28.050Z,53.13
2024-05-09T10:12:27.156Z,53.19
2024-05-09T10:13:27.120Z,49.70
2024-05-09T10:14:27.036Z,49.55
2024-05-09T10:15:27.077Z,49.21
2024-05-09T10:16:27.141Z,53.19
2024-05-09T10:17:27.157Z,49.75
2024-05-09T10:18:29.430Z,51.09
2024-05-09T10:20:32.804Z,50.00
2024-05-09T10:21:30.914Z,50.00
2024-05-09T10:22:30.869Z,50.00
2024-05-09T10:23:30.872Z,50.00
2024-05-09T10:24:30.958Z,50.00
2024-05-09T10:25:30.913Z,51.88
2024-05-09T10:26:30.886Z,50.52
2024-05-09T10:27:30.998Z,50.00
2024-05-09T10:28:30.904Z,52.72
2024-05-09T10:29:30.886Z,52.27
2024-05-09T10:30:35.859Z,51.62
2024-05-09T10:31:31.988Z,51.76
2024-05-09T10:32:31.006Z,51.70
2024-05-09T10:33:31.143Z,52.55
2024-05-09T10:34:31.016Z,48.21
2024-05-09T10:35:30.972Z,50.14
2024-05-09T10:36:30.993Z,50.81
2024-05-09T10:37:31.014Z,49.75
2024-05-09T10:38:30.990Z,52.79
2024-05-09T10:39:31.021Z,52.43
2024-05-09T10:40:31.979Z,50.80
2024-05-09T10:41:31.070Z,53.18
2024-05-09T10:42:31.152Z,52.79
2024-05-09T10:43:31.203Z,54.14
2024-05-09T10:44:31.217Z,54.20
2024-05-09T10:45:31.330Z,51.92
2024-05-09T10:46:31.443Z,50.83
2024-05-09T10:47:31.573Z,51.85
2024-05-09T10:48:31.650Z,55.75
2024-05-09T10:49:32.081Z,51.42
2024-05-09T10:50:34.277Z,53.12
2024-05-09T10:51:31.833Z,51.86
2024-05-09T10:52:31.848Z,53.92
2024-05-09T10:53:31.815Z,54.53
2024-05-09T10:54:31.825Z,52.60
2024-05-09T10:55:31.875Z,51.14
2024-05-09T10:56:31.803Z,54.46
2024-05-09T10:57:31.827Z,53.71
2024-05-09T10:58:42.771Z,53.64
2024-05-09T10:59:31.868Z,54.03
2024-05-09T11:00:35.808Z,54.62
2024-05-09T11:01:31.935Z,53.97
2024-05-09T11:02:32.092Z,54.57
2024-05-09T11:03:32.077Z,54.63
2024-05-09T11:04:31.874Z,56.02
2024-05-09T11:05:31.881Z,56.25
2024-05-09T11:06:31.910Z,55.95
2024-05-09T11:07:31.889Z,55.26
2024-05-09T11:08:31.947Z,56.44
2024-05-09T11:09:31.875Z,52.62
2024-05-09T11:10:34.215Z,53.23
2024-05-09T11:11:31.957Z,54.12
2024-05-09T11:12:31.864Z,55.80
2024-05-09T11:13:32.059Z,53.50
2024-05-09T11:14:31.870Z,53.48
2024-05-09T11:15:31.860Z,53.30
2024-05-09T11:16:31.904Z,52.82
2024-05-09T11:17:31.974Z,51.77
2024-05-09T11:18:35.494Z,54.72
2024-05-09T11:19:32.929Z,54.91
2024-05-09T11:20:34.767Z,55.06
2024-05-09T11:21:31.934Z,55.69
2024-05-09T11:22:31.871Z,55.11
2024-05-09T11:23:31.864Z,54.21
2024-05-09T11:24:31.938Z,51.65
2024-05-09T11:25:31.872Z,53.76
2024-05-09T11:26:31.874Z,52.17
2024-05-09T11:27:31.926Z,53.45
2024-05-09T11:28:31.869Z,52.93
2024-05-09T11:29:31.896Z,55.74
2024-05-09T11:30:32.613Z,52.15
2024-05-09T11:31:32.107Z,52.62
2024-05-09T11:32:31.919Z,52.43
2024-05-09T11:33:32.030Z,52.55
2024-05-09T11:34:32.037Z,52.41
2024-05-09T11:35:31.895Z,51.97
2024-05-09T11:36:31.947Z,52.27
2024-05-09T11:37:34.594Z,52.29
2024-05-09T11:38:31.901Z,52.37
2024-05-09T11:39:31.955Z,52.56
2024-05-09T11:40:34.351Z,52.98
2024-05-09T11:41:31.893Z,52.43
2024-05-09T11:42:31.907Z,52.78
2024-05-09T11:43:32.038Z,53.25
2024-05-09T11:44:31.912Z,53.71
2024-05-09T11:45:32.075Z,54.52
2024-05-09T11:46:31.956Z,50.35
2024-05-09T11:47:32.081Z,51.87
2024-05-09T11:48:32.370Z,52.82
2024-05-09T11:49:32.087Z,52.74
2024-05-09T11:50:35.480Z,50.56
2024-05-09T11:51:32.018Z,50.76
2024-05-09T11:52:31.972Z,51.25
2024-05-09T11:53:32.003Z,53.41
2024-05-09T11:54:32.100Z,54.12
2024-05-09T11:55:31.979Z,57.14
2024-05-09T11:56:31.970Z,55.75
2024-05-09T11:57:32.035Z,55.33
2024-05-09T11:58:33.028Z,55.44
2024-05-09T11:59:32.026Z,55.14
2024-05-09T12:00:36.717Z,54.09
2024-05-09T12:01:33.077Z,54.19
2024-05-09T12:02:32.090Z,54.60
2024-05-09T12:03:32.166Z,54.72
2024-05-09T12:04:32.272Z,54.78
2024-05-09T12:05:32.216Z,53.35
2024-05-09T12:06:32.073Z,52.91
2024-05-09T12:07:32.050Z,51.95
2024-05-09T12:08:31.994Z,51.99
2024-05-09T12:09:32.359Z,53.89
2024-05-09T12:10:34.775Z,52.00
2024-05-09T12:11:32.284Z,52.21
2024-05-09T12:12:33.473Z,52.27
2024-05-09T12:13:32.224Z,53.61
2024-05-09T12:14:32.137Z,51.91
2024-05-09T12:15:32.231Z,53.27
2024-05-09T12:16:32.315Z,52.86
2024-05-09T12:17:32.234Z,51.45
2024-05-09T12:18:32.278Z,52.77
2024-05-09T12:19:32.169Z,53.67
2024-05-09T12:20:36.432Z,52.12
2024-05-09T12:21:33.204Z,52.37
2024-05-09T12:22:32.151Z,52.52
2024-05-09T12:23:32.227Z,51.68
2024-05-09T12:24:32.179Z,53.12
2024-05-09T12:25:32.326Z,52.13
2024-05-09T12:26:32.165Z,50.38
2024-05-09T12:27:32.199Z,53.49
2024-05-09T12:28:32.208Z,52.81
2024-05-09T12:29:33.341Z,50.00
2024-05-09T12:30:37.298Z,54.10
2024-05-09T12:31:33.367Z,54.23
2024-05-09T12:32:32.279Z,53.07
2024-05-09T12:33:32.396Z,52.02
2024-05-09T12:34:32.308Z,55.00
2024-05-09T12:35:32.208Z,53.02
2024-05-09T12:36:32.255Z,53.38
2024-05-09T12:37:32.204Z,51.71
2024-05-09T12:38:32.218Z,50.09
2024-05-09T12:39:32.222Z,51.38
2024-05-09T12:40:36.544Z,52.69
2024-05-09T12:41:33.288Z,52.82
2024-05-09T12:42:33.753Z,53.03
2024-05-09T12:43:32.355Z,52.42
2024-05-09T12:44:32.307Z,53.07
2024-05-09T12:45:32.568Z,51.70
2024-05-09T12:46:32.371Z,51.62
2024-05-09T12:47:32.419Z,50.00
2024-05-09T12:48:32.483Z,51.07
2024-05-09T12:49:32.411Z,50.85